sensor_id;sensor_type;location;lat;lon;timestamp;temperature;humidity
12268;DHT22;6196;48.398;11.736;2023-06-14T00:02:15;13.50;94.40
12268;DHT22;6196;48.398;11.736;2023-06-14T00:04:42;13.50;94.30
12268;DHT22;6196;48.398;11.736;2023-06-14T00:07:09;13.50;94.30
12268;DHT22;6196;48.398;11.736;2023-06-14T00:09:39;13.50;94.20
12268;DHT22;6196;48.398;11.736;2023-06-14T00:12:06;13.40;94.30
12268;DHT22;6196;48.398;11.736;2023-06-14T00:14:35;13.40;94.30
12268;DHT22;6196;48.398;11.736;2023-06-14T00:17:02;13.30;94.40
12268;DHT22;6196;48.398;11.736;2023-06-14T00:19:30;13.30;94.70
12268;DHT22;6196;48.398;11.736;2023-06-14T00:21:59;13.30;94.90
12268;DHT22;6196;48.398;11.736;2023-06-14T00:24:26;13.20;95.00
12268;DHT22;6196;48.398;11.736;2023-06-14T00:26:53;13.10;95.00
12268;DHT22;6196;48.398;11.736;2023-06-14T00:29:21;13.10;95.00
12268;DHT22;6196;48.398;11.736;2023-06-14T00:31:49;13.00;95.00
12268;DHT22;6196;48.398;11.736;2023-06-14T00:34:16;13.00;95.30
12268;DHT22;6196;48.398;11.736;2023-06-14T00:36:43;12.90;95.30
12268;DHT22;6196;48.398;11.736;2023-06-14T00:39:10;12.90;95.40
12268;DHT22;6196;48.398;11.736;2023-06-14T00:41:37;13.00;95.60
12268;DHT22;6196;48.398;11.736;2023-06-14T00:44:04;12.90;95.90
12268;DHT22;6196;48.398;11.736;2023-06-14T00:46:31;12.90;96.00
12268;DHT22;6196;48.398;11.736;2023-06-14T00:48:59;12.90;95.90
12268;DHT22;6196;48.398;11.736;2023-06-14T00:51:27;12.80;95.90
12268;DHT22;6196;48.398;11.736;2023-06-14T00:53:54;12.80;96.00
12268;DHT22;6196;48.398;11.736;2023-06-14T00:56:21;12.80;96.10
12268;DHT22;6196;48.398;11.736;2023-06-14T00:58:50;12.80;96.10
12268;DHT22;6196;48.398;11.736;2023-06-14T01:01:17;12.80;96.00
12268;DHT22;6196;48.398;11.736;2023-06-14T01:03:44;12.80;96.00
12268;DHT22;6196;48.398;11.736;2023-06-14T01:06:33;12.80;96.10
12268;DHT22;6196;48.398;11.736;2023-06-14T01:12:17;12.80;96.50
12268;DHT22;6196;48.398;11.736;2023-06-14T01:15:07;12.80;96.50
12268;DHT22;6196;48.398;11.736;2023-06-14T01:17:36;12.70;96.50
12268;DHT22;6196;48.398;11.736;2023-06-14T01:20:08;12.70;96.60
12268;DHT22;6196;48.398;11.736;2023-06-14T01:22:37;12.70;96.70
12268;DHT22;6196;48.398;11.736;2023-06-14T01:25:04;12.60;97.00
12268;DHT22;6196;48.398;11.736;2023-06-14T01:27:31;12.50;97.20
12268;DHT22;6196;48.398;11.736;2023-06-14T01:29:59;12.40;97.30
12268;DHT22;6196;48.398;11.736;2023-06-14T01:32:31;12.40;97.30
12268;DHT22;6196;48.398;11.736;2023-06-14T01:34:59;12.40;97.40
12268;DHT22;6196;48.398;11.736;2023-06-14T01:37:26;12.40;97.30
12268;DHT22;6196;48.398;11.736;2023-06-14T01:39:53;12.40;97.50
12268;DHT22;6196;48.398;11.736;2023-06-14T01:42:20;12.40;97.60
12268;DHT22;6196;48.398;11.736;2023-06-14T01:44:48;12.40;97.80
12268;DHT22;6196;48.398;11.736;2023-06-14T01:47:16;12.40;97.80
12268;DHT22;6196;48.398;11.736;2023-06-14T01:49:43;12.40;98.00
12268;DHT22;6196;48.398;11.736;2023-06-14T01:52:10;12.40;98.10
12268;DHT22;6196;48.398;11.736;2023-06-14T01:54:37;12.40;98.20
12268;DHT22;6196;48.398;11.736;2023-06-14T01:57:08;12.30;98.40
12268;DHT22;6196;48.398;11.736;2023-06-14T01:59:36;12.20;98.50
12268;DHT22;6196;48.398;11.736;2023-06-14T02:02:04;12.20;98.70
12268;DHT22;6196;48.398;11.736;2023-06-14T02:04:31;12.00;98.90
12268;DHT22;6196;48.398;11.736;2023-06-14T02:06:58;12.00;99.20
12268;DHT22;6196;48.398;11.736;2023-06-14T02:09:25;11.90;99.40
12268;DHT22;6196;48.398;11.736;2023-06-14T02:11:52;11.90;99.70
12268;DHT22;6196;48.398;11.736;2023-06-14T02:14:19;11.90;99.90
12268;DHT22;6196;48.398;11.736;2023-06-14T02:16:46;11.80;99.90
12268;DHT22;6196;48.398;11.736;2023-06-14T02:19:16;11.80;99.90
12268;DHT22;6196;48.398;11.736;2023-06-14T02:21:44;11.80;99.90
12268;DHT22;6196;48.398;11.736;2023-06-14T02:24:11;11.70;99.90
12268;DHT22;6196;48.398;11.736;2023-06-14T02:26:38;11.60;99.90
12268;DHT22;6196;48.398;11.736;2023-06-14T02:29:06;11.60;99.90
12268;DHT22;6196;48.398;11.736;2023-06-14T02:31:36;11.60;99.90
12268;DHT22;6196;48.398;11.736;2023-06-14T02:34:03;11.40;99.90
12268;DHT22;6196;48.398;11.736;2023-06-14T02:36:30;11.40;99.90
12268;DHT22;6196;48.398;11.736;2023-06-14T02:38:57;11.30;99.90
12268;DHT22;6196;48.398;11.736;2023-06-14T02:41:24;11.30;99.90
12268;DHT22;6196;48.398;11.736;2023-06-14T02:43:53;11.20;99.90
12268;DHT22;6196;48.398;11.736;2023-06-14T02:46:20;11.20;99.90
12268;DHT22;6196;48.398;11.736;2023-06-14T02:48:46;11.10;99.90
12268;DHT22;6196;48.398;11.736;2023-06-14T02:51:13;11.10;99.90
12268;DHT22;6196;48.398;11.736;2023-06-14T02:53:40;11.10;99.90
12268;DHT22;6196;48.398;11.736;2023-06-14T02:56:07;11.00;99.90
12268;DHT22;6196;48.398;11.736;2023-06-14T02:58:36;11.00;99.90
12268;DHT22;6196;48.398;11.736;2023-06-14T03:01:04;10.80;99.90
12268;DHT22;6196;48.398;11.736;2023-06-14T03:03:32;10.80;99.90
12268;DHT22;6196;48.398;11.736;2023-06-14T03:05:59;10.80;99.90
12268;DHT22;6196;48.398;11.736;2023-06-14T03:08:32;10.80;99.90
12268;DHT22;6196;48.398;11.736;2023-06-14T03:11:05;10.80;99.90
12268;DHT22;6196;48.398;11.736;2023-06-14T03:13:32;10.80;99.90
12268;DHT22;6196;48.398;11.736;2023-06-14T03:15:59;10.80;99.90
12268;DHT22;6196;48.398;11.736;2023-06-14T03:18:32;10.70;99.90
12268;DHT22;6196;48.398;11.736;2023-06-14T03:21:02;10.80;99.90
12268;DHT22;6196;48.398;11.736;2023-06-14T03:23:30;10.80;99.90
12268;DHT22;6196;48.398;11.736;2023-06-14T03:25:57;10.90;99.90
12268;DHT22;6196;48.398;11.736;2023-06-14T03:28:24;10.80;99.90
12268;DHT22;6196;48.398;11.736;2023-06-14T03:30:52;10.80;99.90
12268;DHT22;6196;48.398;11.736;2023-06-14T03:33:19;10.80;99.90
12268;DHT22;6196;48.398;11.736;2023-06-14T03:35:47;10.80;99.90
12268;DHT22;6196;48.398;11.736;2023-06-14T03:38:14;10.90;99.90
12268;DHT22;6196;48.398;11.736;2023-06-14T03:40:41;10.90;99.90
12268;DHT22;6196;48.398;11.736;2023-06-14T03:43:08;10.90;99.90
12268;DHT22;6196;48.398;11.736;2023-06-14T03:45:35;10.80;99.90
12268;DHT22;6196;48.398;11.736;2023-06-14T03:48:02;10.80;99.90
12268;DHT22;6196;48.398;11.736;2023-06-14T03:50:30;10.80;99.90
12268;DHT22;6196;48.398;11.736;2023-06-14T03:52:58;10.80;99.90
12268;DHT22;6196;48.398;11.736;2023-06-14T03:55:25;10.90;99.90
12268;DHT22;6196;48.398;11.736;2023-06-14T03:57:57;10.90;99.90
12268;DHT22;6196;48.398;11.736;2023-06-14T04:00:24;11.00;99.90
12268;DHT22;6196;48.398;11.736;2023-06-14T04:02:51;11.00;99.90
12268;DHT22;6196;48.398;11.736;2023-06-14T04:05:18;11.10;99.90
12268;DHT22;6196;48.398;11.736;2023-06-14T04:07:46;11.20;99.90
12268;DHT22;6196;48.398;11.736;2023-06-14T04:10:15;11.20;99.90
12268;DHT22;6196;48.398;11.736;2023-06-14T04:12:43;11.30;99.90
12268;DHT22;6196;48.398;11.736;2023-06-14T04:15:10;11.30;99.90
12268;DHT22;6196;48.398;11.736;2023-06-14T04:17:47;11.40;99.90
12268;DHT22;6196;48.398;11.736;2023-06-14T04:20:14;11.50;99.90
12268;DHT22;6196;48.398;11.736;2023-06-14T04:22:41;11.60;99.90
12268;DHT22;6196;48.398;11.736;2023-06-14T04:25:10;11.70;99.90
12268;DHT22;6196;48.398;11.736;2023-06-14T04:27:38;11.90;99.90
12268;DHT22;6196;48.398;11.736;2023-06-14T04:30:05;12.00;99.90
12268;DHT22;6196;48.398;11.736;2023-06-14T04:32:34;12.10;99.90
12268;DHT22;6196;48.398;11.736;2023-06-14T04:35:08;12.20;99.90
12268;DHT22;6196;48.398;11.736;2023-06-14T04:37:35;12.20;99.90
12268;DHT22;6196;48.398;11.736;2023-06-14T04:40:07;12.30;99.90
12268;DHT22;6196;48.398;11.736;2023-06-14T04:42:38;12.30;99.90
12268;DHT22;6196;48.398;11.736;2023-06-14T04:45:07;12.40;99.90
12268;DHT22;6196;48.398;11.736;2023-06-14T04:47:35;12.40;99.90
12268;DHT22;6196;48.398;11.736;2023-06-14T04:50:04;12.50;99.90
12268;DHT22;6196;48.398;11.736;2023-06-14T04:52:31;12.50;99.90
12268;DHT22;6196;48.398;11.736;2023-06-14T04:54:59;12.70;99.90
12268;DHT22;6196;48.398;11.736;2023-06-14T04:57:26;12.80;99.90
12268;DHT22;6196;48.398;11.736;2023-06-14T04:59:53;12.90;99.90
12268;DHT22;6196;48.398;11.736;2023-06-14T05:02:22;13.10;99.90
12268;DHT22;6196;48.398;11.736;2023-06-14T05:04:51;13.20;99.90
12268;DHT22;6196;48.398;11.736;2023-06-14T05:07:18;13.30;99.90
12268;DHT22;6196;48.398;11.736;2023-06-14T05:09:46;13.50;99.90
12268;DHT22;6196;48.398;11.736;2023-06-14T05:12:13;13.60;99.90
12268;DHT22;6196;48.398;11.736;2023-06-14T05:14:44;13.70;99.90
12268;DHT22;6196;48.398;11.736;2023-06-14T05:17:12;13.90;99.90
12268;DHT22;6196;48.398;11.736;2023-06-14T05:19:39;14.00;99.90
12268;DHT22;6196;48.398;11.736;2023-06-14T05:22:07;14.20;99.90
12268;DHT22;6196;48.398;11.736;2023-06-14T05:24:34;14.30;99.90
12268;DHT22;6196;48.398;11.736;2023-06-14T05:27:01;14.60;99.90
12268;DHT22;6196;48.398;11.736;2023-06-14T05:29:28;14.70;99.90
12268;DHT22;6196;48.398;11.736;2023-06-14T05:31:56;14.70;99.90
12268;DHT22;6196;48.398;11.736;2023-06-14T05:34:23;14.80;99.90
12268;DHT22;6196;48.398;11.736;2023-06-14T05:36:50;15.00;99.90
12268;DHT22;6196;48.398;11.736;2023-06-14T05:39:17;15.20;99.90
12268;DHT22;6196;48.398;11.736;2023-06-14T05:41:44;15.30;99.90
12268;DHT22;6196;48.398;11.736;2023-06-14T05:44:13;15.50;99.90
12268;DHT22;6196;48.398;11.736;2023-06-14T05:46:40;15.70;99.90
12268;DHT22;6196;48.398;11.736;2023-06-14T05:49:07;15.70;99.80
12268;DHT22;6196;48.398;11.736;2023-06-14T05:51:34;15.90;99.60
12268;DHT22;6196;48.398;11.736;2023-06-14T05:54:01;15.80;99.90
12268;DHT22;6196;48.398;11.736;2023-06-14T05:56:29;15.90;99.00
12268;DHT22;6196;48.398;11.736;2023-06-14T05:58:56;16.10;99.60
12268;DHT22;6196;48.398;11.736;2023-06-14T06:01:23;16.20;99.60
12268;DHT22;6196;48.398;11.736;2023-06-14T06:03:50;16.50;99.30
12268;DHT22;6196;48.398;11.736;2023-06-14T06:06:17;16.90;98.70
12268;DHT22;6196;48.398;11.736;2023-06-14T06:08:44;17.00;98.40
12268;DHT22;6196;48.398;11.736;2023-06-14T06:11:11;17.30;98.30
12268;DHT22;6196;48.398;11.736;2023-06-14T06:13:38;17.50;98.20
12268;DHT22;6196;48.398;11.736;2023-06-14T06:16:05;17.70;98.00
12268;DHT22;6196;48.398;11.736;2023-06-14T06:18:32;18.00;97.00
12268;DHT22;6196;48.398;11.736;2023-06-14T06:21:00;18.10;97.20
12268;DHT22;6196;48.398;11.736;2023-06-14T06:23:27;18.40;96.30
12268;DHT22;6196;48.398;11.736;2023-06-14T06:25:54;18.50;96.50
12268;DHT22;6196;48.398;11.736;2023-06-14T06:28:21;18.60;96.70
12268;DHT22;6196;48.398;11.736;2023-06-14T06:30:48;18.80;96.40
12268;DHT22;6196;48.398;11.736;2023-06-14T06:33:15;18.70;96.30
12268;DHT22;6196;48.398;11.736;2023-06-14T06:35:42;18.70;95.90
12268;DHT22;6196;48.398;11.736;2023-06-14T06:38:09;18.80;96.30
12268;DHT22;6196;48.398;11.736;2023-06-14T06:40:36;18.90;96.30
12268;DHT22;6196;48.398;11.736;2023-06-14T06:43:03;18.90;96.40
12268;DHT22;6196;48.398;11.736;2023-06-14T06:45:30;18.90;96.30
12268;DHT22;6196;48.398;11.736;2023-06-14T06:47:57;19.10;96.50
12268;DHT22;6196;48.398;11.736;2023-06-14T06:50:24;19.30;95.60
12268;DHT22;6196;48.398;11.736;2023-06-14T06:52:52;19.40;95.70
12268;DHT22;6196;48.398;11.736;2023-06-14T06:55:20;19.20;95.60
12268;DHT22;6196;48.398;11.736;2023-06-14T06:57:47;19.30;96.90
12268;DHT22;6196;48.398;11.736;2023-06-14T07:00:14;19.60;96.30
12268;DHT22;6196;48.398;11.736;2023-06-14T07:02:42;20.00;96.70
12268;DHT22;6196;48.398;11.736;2023-06-14T07:05:09;20.00;94.80
12268;DHT22;6196;48.398;11.736;2023-06-14T07:07:36;20.20;95.00
12268;DHT22;6196;48.398;11.736;2023-06-14T07:10:04;20.20;95.80
12268;DHT22;6196;48.398;11.736;2023-06-14T07:12:32;20.30;95.20
12268;DHT22;6196;48.398;11.736;2023-06-14T07:15:00;20.10;94.90
12268;DHT22;6196;48.398;11.736;2023-06-14T07:17:27;20.30;95.10
12268;DHT22;6196;48.398;11.736;2023-06-14T07:19:54;20.10;95.30
12268;DHT22;6196;48.398;11.736;2023-06-14T07:22:21;20.10;94.60
12268;DHT22;6196;48.398;11.736;2023-06-14T07:24:48;20.10;94.60
12268;DHT22;6196;48.398;11.736;2023-06-14T07:27:15;19.90;95.30
12268;DHT22;6196;48.398;11.736;2023-06-14T07:29:42;20.00;94.90
12268;DHT22;6196;48.398;11.736;2023-06-14T07:32:09;20.20;94.20
12268;DHT22;6196;48.398;11.736;2023-06-14T07:34:36;20.40;94.30
12268;DHT22;6196;48.398;11.736;2023-06-14T07:37:03;20.60;94.90
12268;DHT22;6196;48.398;11.736;2023-06-14T07:39:30;21.00;94.70
12268;DHT22;6196;48.398;11.736;2023-06-14T07:41:57;20.90;93.40
12268;DHT22;6196;48.398;11.736;2023-06-14T07:44:24;20.90;94.20
12268;DHT22;6196;48.398;11.736;2023-06-14T07:46:51;20.90;93.50
12268;DHT22;6196;48.398;11.736;2023-06-14T07:49:18;21.20;93.80
12268;DHT22;6196;48.398;11.736;2023-06-14T07:51:45;21.10;93.20
12268;DHT22;6196;48.398;11.736;2023-06-14T07:54:13;21.20;93.60
12268;DHT22;6196;48.398;11.736;2023-06-14T07:56:40;21.40;93.40
12268;DHT22;6196;48.398;11.736;2023-06-14T07:59:10;21.70;92.90
12268;DHT22;6196;48.398;11.736;2023-06-14T08:01:37;21.90;92.70
12268;DHT22;6196;48.398;11.736;2023-06-14T08:04:04;22.20;92.00
12268;DHT22;6196;48.398;11.736;2023-06-14T08:06:31;22.60;93.00
12268;DHT22;6196;48.398;11.736;2023-06-14T08:09:00;22.60;91.80
12268;DHT22;6196;48.398;11.736;2023-06-14T08:11:27;22.20;90.90
12268;DHT22;6196;48.398;11.736;2023-06-14T08:13:54;22.00;92.30
12268;DHT22;6196;48.398;11.736;2023-06-14T08:16:21;21.60;92.60
12268;DHT22;6196;48.398;11.736;2023-06-14T08:18:48;21.40;92.50
12268;DHT22;6196;48.398;11.736;2023-06-14T08:21:15;21.30;93.10
12268;DHT22;6196;48.398;11.736;2023-06-14T08:23:42;21.50;93.20
12268;DHT22;6196;48.398;11.736;2023-06-14T08:26:10;21.90;93.50
12268;DHT22;6196;48.398;11.736;2023-06-14T08:28:37;22.10;93.20
12268;DHT22;6196;48.398;11.736;2023-06-14T08:31:04;22.10;93.00
12268;DHT22;6196;48.398;11.736;2023-06-14T08:33:31;21.80;92.70
12268;DHT22;6196;48.398;11.736;2023-06-14T08:36:01;22.10;92.80
12268;DHT22;6196;48.398;11.736;2023-06-14T08:38:28;22.30;94.50
12268;DHT22;6196;48.398;11.736;2023-06-14T08:40:57;23.10;93.60
12268;DHT22;6196;48.398;11.736;2023-06-14T08:43:25;23.70;92.30
12268;DHT22;6196;48.398;11.736;2023-06-14T08:45:58;23.90;91.50
12268;DHT22;6196;48.398;11.736;2023-06-14T08:48:26;23.60;90.90
12268;DHT22;6196;48.398;11.736;2023-06-14T08:50:59;23.50;91.60
12268;DHT22;6196;48.398;11.736;2023-06-14T08:53:31;23.60;91.90
12268;DHT22;6196;48.398;11.736;2023-06-14T08:56:05;23.80;91.00
12268;DHT22;6196;48.398;11.736;2023-06-14T08:58:34;24.00;90.30
12268;DHT22;6196;48.398;11.736;2023-06-14T09:01:02;24.40;90.70
12268;DHT22;6196;48.398;11.736;2023-06-14T09:03:30;24.70;90.40
12268;DHT22;6196;48.398;11.736;2023-06-14T09:06:00;24.80;87.70
12268;DHT22;6196;48.398;11.736;2023-06-14T09:08:28;25.10;90.40
12268;DHT22;6196;48.398;11.736;2023-06-14T09:10:57;25.20;89.20
12268;DHT22;6196;48.398;11.736;2023-06-14T09:13:26;24.90;89.40
12268;DHT22;6196;48.398;11.736;2023-06-14T09:15:57;24.50;84.60
12268;DHT22;6196;48.398;11.736;2023-06-14T09:18:38;24.10;85.10
12268;DHT22;6196;48.398;11.736;2023-06-14T09:21:08;24.40;84.60
12268;DHT22;6196;48.398;11.736;2023-06-14T09:23:39;24.90;86.40
12268;DHT22;6196;48.398;11.736;2023-06-14T09:26:16;24.90;86.60
12268;DHT22;6196;48.398;11.736;2023-06-14T09:28:48;25.10;83.40
12268;DHT22;6196;48.398;11.736;2023-06-14T09:31:17;25.00;83.90
12268;DHT22;6196;48.398;11.736;2023-06-14T09:33:47;25.00;84.00
12268;DHT22;6196;48.398;11.736;2023-06-14T09:36:21;24.70;84.10
12268;DHT22;6196;48.398;11.736;2023-06-14T09:38:56;25.00;83.20
12268;DHT22;6196;48.398;11.736;2023-06-14T09:41:40;24.80;81.80
12268;DHT22;6196;48.398;11.736;2023-06-14T09:44:08;24.80;82.20
12268;DHT22;6196;48.398;11.736;2023-06-14T09:46:43;25.10;85.70
12268;DHT22;6196;48.398;11.736;2023-06-14T09:49:11;25.60;84.20
12268;DHT22;6196;48.398;11.736;2023-06-14T09:51:45;26.00;82.10
12268;DHT22;6196;48.398;11.736;2023-06-14T09:54:22;26.10;81.00
12268;DHT22;6196;48.398;11.736;2023-06-14T09:56:51;26.40;78.70
12268;DHT22;6196;48.398;11.736;2023-06-14T09:59:22;26.20;79.00
12268;DHT22;6196;48.398;11.736;2023-06-14T10:01:58;26.00;78.10
12268;DHT22;6196;48.398;11.736;2023-06-14T10:04:28;25.80;78.10
12268;DHT22;6196;48.398;11.736;2023-06-14T10:06:57;25.90;77.40
12268;DHT22;6196;48.398;11.736;2023-06-14T10:09:24;25.60;77.70
12268;DHT22;6196;48.398;11.736;2023-06-14T10:11:51;25.70;78.30
12268;DHT22;6196;48.398;11.736;2023-06-14T10:14:19;25.10;79.40
12268;DHT22;6196;48.398;11.736;2023-06-14T10:17:06;24.80;77.50
12268;DHT22;6196;48.398;11.736;2023-06-14T10:19:48;24.60;79.20
12268;DHT22;6196;48.398;11.736;2023-06-14T10:22:51;24.70;80.20
12268;DHT22;6196;48.398;11.736;2023-06-14T10:25:28;25.20;79.10
12268;DHT22;6196;48.398;11.736;2023-06-14T10:30:38;25.90;77.80
12268;DHT22;6196;48.398;11.736;2023-06-14T10:33:07;25.80;81.10
12268;DHT22;6196;48.398;11.736;2023-06-14T10:35:34;25.20;78.50
12268;DHT22;6196;48.398;11.736;2023-06-14T10:38:11;25.00;80.30
12268;DHT22;6196;48.398;11.736;2023-06-14T10:40:39;24.90;80.60
12268;DHT22;6196;48.398;11.736;2023-06-14T10:43:23;24.70;80.00
12268;DHT22;6196;48.398;11.736;2023-06-14T10:46:18;24.40;80.60
12268;DHT22;6196;48.398;11.736;2023-06-14T10:48:48;24.60;79.40
12268;DHT22;6196;48.398;11.736;2023-06-14T10:51:16;24.50;79.30
12268;DHT22;6196;48.398;11.736;2023-06-14T10:53:48;24.40;80.60
12268;DHT22;6196;48.398;11.736;2023-06-14T10:56:28;24.40;84.10
12268;DHT22;6196;48.398;11.736;2023-06-14T10:58:57;25.10;83.40
12268;DHT22;6196;48.398;11.736;2023-06-14T11:01:40;25.50;80.00
12268;DHT22;6196;48.398;11.736;2023-06-14T11:04:10;25.20;79.80
12268;DHT22;6196;48.398;11.736;2023-06-14T11:06:48;25.30;79.00
12268;DHT22;6196;48.398;11.736;2023-06-14T11:09:23;25.40;80.10
12268;DHT22;6196;48.398;11.736;2023-06-14T11:11:52;25.90;78.90
12268;DHT22;6196;48.398;11.736;2023-06-14T11:14:20;26.10;74.50
12268;DHT22;6196;48.398;11.736;2023-06-14T11:16:48;25.60;75.20
12268;DHT22;6196;48.398;11.736;2023-06-14T11:19:16;25.20;79.50
12268;DHT22;6196;48.398;11.736;2023-06-14T11:21:47;25.20;79.20
12268;DHT22;6196;48.398;11.736;2023-06-14T11:24:15;25.20;81.60
12268;DHT22;6196;48.398;11.736;2023-06-14T11:26:43;25.60;76.40
12268;DHT22;6196;48.398;11.736;2023-06-14T11:29:10;25.90;77.10
12268;DHT22;6196;48.398;11.736;2023-06-14T11:31:37;26.20;78.30
12268;DHT22;6196;48.398;11.736;2023-06-14T11:34:04;26.70;76.60
12268;DHT22;6196;48.398;11.736;2023-06-14T11:36:34;26.20;75.00
12268;DHT22;6196;48.398;11.736;2023-06-14T11:39:06;26.70;74.10
12268;DHT22;6196;48.398;11.736;2023-06-14T11:41:37;26.70;76.20
12268;DHT22;6196;48.398;11.736;2023-06-14T11:44:06;26.20;73.10
12268;DHT22;6196;48.398;11.736;2023-06-14T11:46:34;26.40;74.80
12268;DHT22;6196;48.398;11.736;2023-06-14T11:49:05;26.40;75.40
12268;DHT22;6196;48.398;11.736;2023-06-14T11:51:34;26.50;75.20
12268;DHT22;6196;48.398;11.736;2023-06-14T11:54:03;26.60;76.30
12268;DHT22;6196;48.398;11.736;2023-06-14T11:56:33;27.10;77.80
12268;DHT22;6196;48.398;11.736;2023-06-14T11:59:03;27.00;75.80
12268;DHT22;6196;48.398;11.736;2023-06-14T12:01:35;27.40;76.00
12268;DHT22;6196;48.398;11.736;2023-06-14T12:04:03;27.10;72.50
12268;DHT22;6196;48.398;11.736;2023-06-14T12:06:31;27.50;73.10
12268;DHT22;6196;48.398;11.736;2023-06-14T12:09:06;27.50;70.40
12268;DHT22;6196;48.398;11.736;2023-06-14T12:11:39;27.40;71.00
12268;DHT22;6196;48.398;11.736;2023-06-14T12:14:07;26.80;69.40
12268;DHT22;6196;48.398;11.736;2023-06-14T12:16:36;26.90;70.70
12268;DHT22;6196;48.398;11.736;2023-06-14T12:19:15;27.00;70.60
12268;DHT22;6196;48.398;11.736;2023-06-14T12:21:46;27.30;72.20
12268;DHT22;6196;48.398;11.736;2023-06-14T12:24:17;27.30;72.50
12268;DHT22;6196;48.398;11.736;2023-06-14T12:26:44;27.50;68.50
12268;DHT22;6196;48.398;11.736;2023-06-14T12:29:12;27.50;70.90
12268;DHT22;6196;48.398;11.736;2023-06-14T12:31:40;27.40;70.10
12268;DHT22;6196;48.398;11.736;2023-06-14T12:34:07;27.80;68.20
12268;DHT22;6196;48.398;11.736;2023-06-14T12:36:35;27.20;66.70
12268;DHT22;6196;48.398;11.736;2023-06-14T12:39:07;26.90;67.90
12268;DHT22;6196;48.398;11.736;2023-06-14T12:41:35;26.20;68.60
12268;DHT22;6196;48.398;11.736;2023-06-14T12:44:03;26.00;73.60
12268;DHT22;6196;48.398;11.736;2023-06-14T12:46:31;25.50;72.60
12268;DHT22;6196;48.398;11.736;2023-06-14T12:48:58;25.30;74.00
12268;DHT22;6196;48.398;11.736;2023-06-14T12:51:25;25.10;76.90
12268;DHT22;6196;48.398;11.736;2023-06-14T12:53:53;25.30;80.20
12268;DHT22;6196;48.398;11.736;2023-06-14T12:56:20;25.60;74.50
12268;DHT22;6196;48.398;11.736;2023-06-14T12:58:50;25.70;74.90
12268;DHT22;6196;48.398;11.736;2023-06-14T13:01:17;25.90;78.40
12268;DHT22;6196;48.398;11.736;2023-06-14T13:03:46;26.50;80.40
12268;DHT22;6196;48.398;11.736;2023-06-14T13:06:14;27.20;72.40
12268;DHT22;6196;48.398;11.736;2023-06-14T13:08:41;28.00;71.30
12268;DHT22;6196;48.398;11.736;2023-06-14T13:11:07;28.50;68.20
12268;DHT22;6196;48.398;11.736;2023-06-14T13:13:34;28.90;72.70
12268;DHT22;6196;48.398;11.736;2023-06-14T13:16:02;28.30;70.60
12268;DHT22;6196;48.398;11.736;2023-06-14T13:18:29;28.20;65.40
12268;DHT22;6196;48.398;11.736;2023-06-14T13:20:56;27.60;67.20
12268;DHT22;6196;48.398;11.736;2023-06-14T13:23:23;27.70;66.20
12268;DHT22;6196;48.398;11.736;2023-06-14T13:25:50;27.80;71.30
12268;DHT22;6196;48.398;11.736;2023-06-14T13:28:17;28.00;66.70
12268;DHT22;6196;48.398;11.736;2023-06-14T13:30:44;28.30;68.70
12268;DHT22;6196;48.398;11.736;2023-06-14T13:33:11;28.20;67.10
12268;DHT22;6196;48.398;11.736;2023-06-14T13:35:39;27.70;65.80
12268;DHT22;6196;48.398;11.736;2023-06-14T13:38:06;27.00;66.40
12268;DHT22;6196;48.398;11.736;2023-06-14T13:40:36;26.80;68.60
12268;DHT22;6196;48.398;11.736;2023-06-14T13:43:02;27.00;67.20
12268;DHT22;6196;48.398;11.736;2023-06-14T13:45:29;27.20;64.80
12268;DHT22;6196;48.398;11.736;2023-06-14T13:47:56;27.30;67.80
12268;DHT22;6196;48.398;11.736;2023-06-14T13:50:41;26.80;65.90
12268;DHT22;6196;48.398;11.736;2023-06-14T13:53:08;26.50;68.40
12268;DHT22;6196;48.398;11.736;2023-06-14T13:55:52;26.00;71.20
12268;DHT22;6196;48.398;11.736;2023-06-14T13:58:19;25.50;71.70
12268;DHT22;6196;48.398;11.736;2023-06-14T14:01:04;25.40;73.20
12268;DHT22;6196;48.398;11.736;2023-06-14T14:03:31;25.30;74.80
12268;DHT22;6196;48.398;11.736;2023-06-14T14:05:58;25.30;78.30
12268;DHT22;6196;48.398;11.736;2023-06-14T14:08:43;25.20;74.10
12268;DHT22;6196;48.398;11.736;2023-06-14T14:11:11;25.50;75.70
12268;DHT22;6196;48.398;11.736;2023-06-14T14:13:56;25.70;73.30
12268;DHT22;6196;48.398;11.736;2023-06-14T14:16:41;26.60;75.10
12268;DHT22;6196;48.398;11.736;2023-06-14T14:19:08;27.00;69.90
12268;DHT22;6196;48.398;11.736;2023-06-14T14:21:53;27.10;65.80
12268;DHT22;6196;48.398;11.736;2023-06-14T14:24:20;27.30;68.70
12268;DHT22;6196;48.398;11.736;2023-06-14T14:27:05;27.30;70.80
12268;DHT22;6196;48.398;11.736;2023-06-14T14:29:33;27.40;69.60
12268;DHT22;6196;48.398;11.736;2023-06-14T14:32:00;27.90;69.90
12268;DHT22;6196;48.398;11.736;2023-06-14T14:34:27;27.80;65.20
12268;DHT22;6196;48.398;11.736;2023-06-14T14:36:54;28.00;66.80
12268;DHT22;6196;48.398;11.736;2023-06-14T14:39:21;28.40;74.00
12268;DHT22;6196;48.398;11.736;2023-06-14T14:41:48;28.90;68.20
12268;DHT22;6196;48.398;11.736;2023-06-14T14:44:16;29.40;67.70
12268;DHT22;6196;48.398;11.736;2023-06-14T14:46:45;29.00;66.80
12268;DHT22;6196;48.398;11.736;2023-06-14T14:49:11;28.60;66.90
12268;DHT22;6196;48.398;11.736;2023-06-14T14:51:39;28.60;67.60
12268;DHT22;6196;48.398;11.736;2023-06-14T14:54:06;27.90;67.50
12268;DHT22;6196;48.398;11.736;2023-06-14T14:56:33;27.30;69.10
12268;DHT22;6196;48.398;11.736;2023-06-14T14:59:01;27.90;65.30
12268;DHT22;6196;48.398;11.736;2023-06-14T15:01:29;28.10;63.20
12268;DHT22;6196;48.398;11.736;2023-06-14T15:03:56;28.70;66.70
12268;DHT22;6196;48.398;11.736;2023-06-14T15:06:25;29.10;65.30
12268;DHT22;6196;48.398;11.736;2023-06-14T15:08:52;28.80;66.10
12268;DHT22;6196;48.398;11.736;2023-06-14T15:11:19;28.40;66.20
12268;DHT22;6196;48.398;11.736;2023-06-14T15:13:47;28.20;70.20
12268;DHT22;6196;48.398;11.736;2023-06-14T15:16:15;28.10;70.30
12268;DHT22;6196;48.398;11.736;2023-06-14T15:18:42;27.90;69.90
12268;DHT22;6196;48.398;11.736;2023-06-14T15:21:09;27.40;70.10
12268;DHT22;6196;48.398;11.736;2023-06-14T15:23:36;27.00;71.30
12268;DHT22;6196;48.398;11.736;2023-06-14T15:26:03;26.50;71.40
12268;DHT22;6196;48.398;11.736;2023-06-14T15:28:30;26.30;72.60
12268;DHT22;6196;48.398;11.736;2023-06-14T15:30:59;25.80;72.60
12268;DHT22;6196;48.398;11.736;2023-06-14T15:33:27;25.60;74.20
12268;DHT22;6196;48.398;11.736;2023-06-14T15:35:54;25.30;73.20
12268;DHT22;6196;48.398;11.736;2023-06-14T15:38:22;25.20;74.60
12268;DHT22;6196;48.398;11.736;2023-06-14T15:40:49;25.20;74.30
12268;DHT22;6196;48.398;11.736;2023-06-14T15:43:17;25.10;74.90
12268;DHT22;6196;48.398;11.736;2023-06-14T15:45:44;25.00;75.40
12268;DHT22;6196;48.398;11.736;2023-06-14T15:48:12;24.90;75.60